Time;durP1;ratioP1;P1;durP2;ratioP2;P2;SDS_P1;SDS_P2;PMS_P1;PMS_P2;Temp;Humidity;BMP_temperature;BMP_pressure;BME280_temperature;BME280_humidity;BME280_pressure;Samples;Min_cycle;Max_cycle;Signal;HPM_P1;HPM_P2
2023/11/10 00:01:53;;;;;;;34.10;27.20;;;;;;;5.11;100.00;100680.79;89121;279;138122;-82
2023/11/10 00:03:55;;;;;;;30.60;25.20;;;;;;;5.09;100.00;100680.34;88542;272;25090;-80
2023/11/10 00:05:57;;;;;;;31.20;25.10;;;;;;;5.07;100.00;100682.98;88579;278;136936;-80
2023/11/10 00:07:59;;;;;;;31.00;25.50;;;;;;;5.04;100.00;100688.76;88568;273;22541;-77
2023/11/10 00:10:03;;;;;;;35.60;26.00;;;;;;;5.02;100.00;100690.98;88534;272;137367;-80
2023/11/10 00:12:06;;;;;;;31.20;26.40;;;;;;;5.01;100.00;100689.23;89222;272;138655;-73
2023/11/10 00:14:07;;;;;;;32.70;27.20;;;;;;;4.98;100.00;100685.08;89689;276;22624;-82
2023/11/10 00:16:17;;;;;;;30.40;27.00;;;;;;;4.97;100.00;100686.05;89203;276;137061;-74
2023/11/10 00:18:19;;;;;;;31.80;24.70;;;;;;;4.95;100.00;100683.74;88407;272;22530;-80
2023/11/10 00:20:22;;;;;;;29.90;26.10;;;;;;;4.95;100.00;100686.27;88913;273;137068;-78
2023/11/10 00:22:24;;;;;;;32.10;26.00;;;;;;;4.94;100.00;100686.10;88752;276;22628;-79
2023/11/10 00:24:27;;;;;;;36.40;27.40;;;;;;;4.94;100.00;100683.83;88589;276;137939;-78
2023/11/10 00:26:33;;;;;;;30.60;24.20;;;;;;;4.97;100.00;100681.31;90025;274;22575;-73
2023/11/10 00:28:37;;;;;;;33.80;27.00;;;;;;;4.95;100.00;100685.75;90046;279;137007;-75
2023/11/10 00:30:39;;;;;;;31.10;25.10;;;;;;;4.97;100.00;100686.08;88742;278;22552;-68
2023/11/10 00:32:41;;;;;;;38.80;26.50;;;;;;;4.97;100.00;100684.27;88545;279;137019;-79
2023/11/10 00:34:43;;;;;;;32.20;26.00;;;;;;;4.94;100.00;100678.58;88512;279;22527;-79
2023/11/10 00:36:45;;;;;;;29.10;25.00;;;;;;;4.97;100.00;100685.71;88442;272;137260;-79
2023/11/10 00:38:47;;;;;;;36.70;26.30;;;;;;;4.95;100.00;100686.80;88676;280;24024;-72
2023/11/10 00:40:49;;;;;;;32.00;26.10;;;;;;;4.93;100.00;100686.58;88407;280;137308;-81
2023/11/10 00:42:51;;;;;;;33.80;26.10;;;;;;;4.90;100.00;100689.48;88430;280;24024;-76
2023/11/10 00:44:54;;;;;;;29.40;25.00;;;;;;;4.87;100.00;100687.30;88487;279;138624;-76
2023/11/10 00:46:56;;;;;;;33.00;25.00;;;;;;;4.86;100.00;100690.16;88476;282;22534;-78
2023/11/10 00:48:57;;;;;;;26.50;22.70;;;;;;;4.85;100.00;100688.65;88336;280;137048;-84
2023/11/10 00:51:00;;;;;;;32.70;25.70;;;;;;;4.86;100.00;100690.48;88510;276;22527;-72
2023/11/10 00:53:02;;;;;;;30.50;24.10;;;;;;;4.87;100.00;100684.42;88284;273;138838;-71
2023/11/10 00:55:06;;;;;;;27.60;23.80;;;;;;;4.89;100.00;100686.20;88491;279;24472;-74
2023/11/10 00:57:08;;;;;;;27.10;22.40;;;;;;;4.88;100.00;100687.88;88618;276;137461;-76
2023/11/10 00:59:10;;;;;;;26.80;22.80;;;;;;;4.86;100.00;100682.80;88426;272;24049;-76
2023/11/10 01:01:12;;;;;;;25.80;20.80;;;;;;;4.90;100.00;100684.57;88517;279;136981;-74
2023/11/10 01:03:14;;;;;;;29.50;22.70;;;;;;;4.89;100.00;100683.02;88474;273;22530;-78
2023/11/10 01:05:19;;;;;;;26.90;22.50;;;;;;;4.78;100.00;100670.84;88232;274;137940;-71
2023/11/10 01:07:21;;;;;;;;;;;;;;;4.85;100.00;100681.48;88490;273;22919;-77
2023/11/10 01:09:23;;;;;;;25.00;21.50;;;;;;;4.84;100.00;100679.98;88465;276;123160;-77
2023/11/10 01:11:26;;;;;;;27.30;21.80;;;;;;;4.87;100.00;100683.63;88795;279;22665;-75
2023/11/10 01:13:28;;;;;;;27.50;22.60;;;;;;;4.86;100.00;100681.88;89200;272;137136;-77
2023/11/10 01:15:30;;;;;;;25.90;21.50;;;;;;;4.86;100.00;100681.75;88595;276;22534;-77
2023/11/10 01:17:32;;;;;;;25.10;22.50;;;;;;;4.86;100.00;100679.42;88507;276;137237;-77
2023/11/10 01:19:36;;;;;;;24.30;21.30;;;;;;;4.86;100.00;100680.46;88515;276;24863;-72
2023/11/10 01:21:39;;;;;;;33.70;22.40;;;;;;;4.86;100.00;100682.63;88527;278;136888;-79
2023/11/10 01:23:42;;;;;;;25.10;22.00;;;;;;;4.86;100.00;100686.52;89097;274;22541;-74
2023/11/10 01:25:44;;;;;;;24.80;20.10;;;;;;;4.85;100.00;100685.55;88554;276;138132;-79
2023/11/10 01:27:46;;;;;;;24.40;21.30;;;;;;;4.85;100.00;100686.64;88563;280;22546;-76
2023/11/10 01:29:48;;;;;;;34.80;22.40;;;;;;;4.84;100.00;100688.58;88442;280;137287;-78
2023/11/10 01:31:50;;;;;;;24.80;20.90;;;;;;;4.86;100.00;100690.96;88527;280;24182;-74
2023/11/10 01:33:51;;;;;;;27.20;22.90;;;;;;;4.85;100.00;100683.20;88308;273;137173;-77
2023/11/10 01:35:54;;;;;;;25.30;21.50;;;;;;;4.84;100.00;100684.58;88579;272;25249;-74
2023/11/10 01:37:55;;;;;;;24.10;21.30;;;;;;;4.84;100.00;100684.60;88471;272;137176;-78
2023/11/10 01:39:57;;;;;;;24.00;21.50;;;;;;;4.82;100.00;100684.41;88467;273;23742;-76
2023/11/10 01:42:00;;;;;;;25.50;21.50;;;;;;;4.80;100.00;100680.50;88578;272;138424;-77
2023/11/10 01:44:02;;;;;;;25.60;21.60;;;;;;;4.77;100.00;100681.86;88724;274;22600;-76
2023/11/10 01:46:06;;;;;;;29.60;22.30;;;;;;;4.76;100.00;100680.05;88551;276;22531;-78
2023/11/10 01:48:10;;;;;;;28.00;22.70;;;;;;;4.72;100.00;100678.98;88750;274;138413;-78
2023/11/10 01:50:13;;;;;;;29.60;22.30;;;;;;;4.71;100.00;100677.33;89207;273;24091;-76
2023/11/10 01:52:15;;;;;;;27.30;23.10;;;;;;;4.70;100.00;100680.23;88675;277;137344;-77
2023/11/10 01:54:20;;;;;;;28.60;24.40;;;;;;;4.66;100.00;100678.09;88439;278;22472;-79
2023/11/10 01:56:23;;;;;;;28.40;23.30;;;;;;;4.64;100.00;100680.10;88412;279;137021;-75
2023/11/10 01:58:26;;;;;;;26.10;22.20;;;;;;;4.62;100.00;100684.89;88516;281;26165;-80
2023/11/10 02:02:48;;;;;;;28.10;23.10;;;;;;;4.52;100.00;100690.33;87351;297;602840;-78
2023/11/10 02:04:51;;;;;;;23.80;21.10;;;;;;;4.50;100.00;100697.05;88732;285;136763;-78
2023/11/10 02:06:53;;;;;;;27.60;22.70;;;;;;;4.49;100.00;100678.61;88309;284;22540;-76
2023/11/10 02:08:55;;;;;;;28.60;23.80;;;;;;;4.48;100.00;100683.49;88004;280;136467;-72
2023/11/10 02:10:57;;;;;;;28.60;23.30;;;;;;;4.49;100.00;100689.70;88244;278;22553;-73
2023/11/10 02:12:59;;;;;;;27.60;22.80;;;;;;;4.42;100.00;100677.89;88085;285;136639;-78
2023/11/10 02:15:02;;;;;;;30.50;24.10;;;;;;;4.48;100.00;100689.10;88511;280;22907;-71
2023/11/10 02:17:06;;;;;;;29.40;23.20;;;;;;;4.39;100.00;100675.49;89214;278;650917;-72
2023/11/10 02:19:16;;;;;;;26.80;23.40;;;;;;;4.45;100.00;100679.41;88411;277;22556;-78
2023/11/10 02:21:18;;;;;;;31.10;23.70;;;;;;;4.44;100.00;100683.52;89192;282;136563;-71
2023/11/10 02:23:22;;;;;;;29.20;23.20;;;;;;;4.41;100.00;100682.70;91007;282;22555;-77
2023/11/10 02:25:25;;;;;;;30.10;22.20;;;;;;;4.44;100.00;100688.20;90693;277;136576;-71
2023/11/10 02:27:27;;;;;;;32.30;23.10;;;;;;;4.45;100.00;100689.40;91009;283;22526;-75
2023/11/10 02:29:31;;;;;;;28.30;22.90;;;;;;;4.44;100.00;100688.23;89477;279;136730;-78
2023/11/10 02:31:33;;;;;;;26.80;23.00;;;;;;;4.44;100.00;100686.32;88888;284;22538;-78
2023/11/10 02:33:36;;;;;;;26.10;22.10;;;;;;;4.42;100.00;100690.91;88737;280;137205;-83
2023/11/10 02:35:38;;;;;;;27.70;22.80;;;;;;;4.40;100.00;100691.64;88607;274;24165;-82
2023/11/10 02:37:40;;;;;;;27.70;21.40;;;;;;;4.39;100.00;100693.14;88591;280;136621;-82
2023/11/10 02:39:42;;;;;;;28.00;22.30;;;;;;;4.40;100.00;100691.61;88480;278;23634;-76
2023/11/10 02:41:44;;;;;;;27.70;23.10;;;;;;;4.39;100.00;100691.36;88567;272;138114;-78
2023/11/10 02:43:46;;;;;;;27.40;23.20;;;;;;;4.36;100.00;100691.94;88581;280;23992;-77
2023/11/10 02:45:49;;;;;;;29.40;24.00;;;;;;;4.33;100.00;100691.91;88451;280;137888;-80
2023/11/10 02:47:51;;;;;;;26.90;22.40;;;;;;;4.32;100.00;100692.23;88834;277;22671;-79
2023/11/10 02:49:53;;;;;;;27.00;22.90;;;;;;;4.29;100.00;100685.91;88349;274;136728;-77
2023/11/10 02:51:55;;;;;;;25.30;22.50;;;;;;;4.28;100.00;100685.86;88645;273;22529;-77
2023/11/10 02:53:56;;;;;;;25.60;22.60;;;;;;;4.25;100.00;100683.96;88650;278;138053;-71
2023/11/10 02:56:01;;;;;;;26.40;22.60;;;;;;;4.24;100.00;100681.08;88548;273;22520;-75
2023/11/10 02:58:03;;;;;;;25.40;22.50;;;;;;;4.26;100.00;100679.45;88521;274;22628;-75
2023/11/10 03:00:09;;;;;;;27.90;22.90;;;;;;;4.26;100.00;100680.91;88282;274;137200;-68
2023/11/10 03:02:11;;;;;;;27.60;21.90;;;;;;;4.25;100.00;100678.85;88600;280;22794;-77
2023/11/10 03:04:13;;;;;;;26.70;21.10;;;;;;;4.24;100.00;100679.55;88382;273;137100;-79
2023/11/10 03:06:15;;;;;;;26.10;21.70;;;;;;;4.24;100.00;100679.90;88592;280;22527;-76
2023/11/10 03:08:17;;;;;;;26.90;21.60;;;;;;;4.23;100.00;100685.09;88577;273;136994;-79
2023/11/10 03:10:19;;;;;;;25.20;22.10;;;;;;;4.21;100.00;100685.38;88882;272;22545;-81
2023/11/10 03:12:23;;;;;;;28.60;22.70;;;;;;;4.20;100.00;100684.85;89303;280;138310;-78
2023/11/10 03:14:27;;;;;;;29.00;21.00;;;;;;;4.18;100.00;100680.92;89092;280;22520;-76
2023/11/10 03:16:29;;;;;;;24.70;21.50;;;;;;;4.20;100.00;100681.31;88561;277;137533;-76
2023/11/10 03:18:31;;;;;;;25.10;20.80;;;;;;;4.20;100.00;100685.13;88571;277;22720;-79
2023/11/10 03:20:33;;;;;;;25.50;20.70;;;;;;;4.20;100.00;100682.71;88413;280;136905;-76
2023/11/10 03:22:36;;;;;;;25.80;20.60;;;;;;;4.20;100.00;100679.35;88575;280;22541;-79
2023/11/10 03:24:38;;;;;;;23.10;20.10;;;;;;;4.20;100.00;100680.80;88643;274;136971;-79
2023/11/10 03:26:43;;;;;;;28.70;21.20;;;;;;;4.21;100.00;100682.80;88627;280;22539;-76
2023/11/10 03:28:44;;;;;;;24.70;20.50;;;;;;;4.19;100.00;100680.36;88518;279;136780;-77
2023/11/10 03:30:47;;;;;;;22.40;20.00;;;;;;;4.18;100.00;100680.95;88547;280;22544;-81
2023/11/10 03:32:49;;;;;;;24.50;20.50;;;;;;;4.17;100.00;100680.30;88592;280;137101;-79
2023/11/10 03:34:51;;;;;;;24.70;21.20;;;;;;;4.16;100.00;100674.66;88525;282;25090;-80
2023/11/10 03:36:54;;;;;;;23.80;20.70;;;;;;;4.13;100.00;100677.55;88798;272;137118;-84
2023/11/10 03:38:56;;;;;;;28.10;21.40;;;;;;;4.10;100.00;100671.93;88667;272;22566;-79
2023/11/10 03:40:58;;;;;;;25.80;21.80;;;;;;;4.08;100.00;100673.35;88635;280;136724;-83
2023/11/10 03:43:00;;;;;;;23.40;20.90;;;;;;;3.97;100.00;100659.91;88558;275;26174;-79
2023/11/10 03:45:03;;;;;;;22.50;19.70;;;;;;;4.04;100.00;100674.06;88517;276;136726;-81
2023/11/10 03:47:06;;;;;;;25.40;21.90;;;;;;;4.02;100.00;100674.96;88720;279;22533;-86
2023/11/10 03:49:08;;;;;;;27.60;21.30;;;;;;;4.01;100.00;100676.80;89175;280;136917;-82
2023/11/10 03:51:12;;;;;;;22.50;18.90;;;;;;;4.00;100.00;100675.65;89558;273;22671;-82
2023/11/10 03:53:15;;;;;;;25.30;20.80;;;;;;;4.00;100.00;100677.59;90771;279;136710;-81
2023/11/10 03:55:17;;;;;;;24.70;20.30;;;;;;;3.98;100.00;100675.88;89241;276;22546;-81
2023/11/10 03:57:18;;;;;;;22.50;19.70;;;;;;;3.95;100.00;100677.14;89064;280;136929;-71
2023/11/10 03:59:22;;;;;;;25.90;20.50;;;;;;;3.95;100.00;100678.58;88789;273;22533;-79
2023/11/10 04:01:24;;;;;;;21.30;19.00;;;;;;;3.94;100.00;100674.50;88636;273;136714;-79
2023/11/10 04:03:26;;;;;;;25.20;19.80;;;;;;;3.90;100.00;100678.48;89068;277;24164;-83
2023/11/10 04:05:28;;;;;;;23.30;20.30;;;;;;;3.89;100.00;100673.16;88505;280;138469;-84
2023/11/10 04:07:30;;;;;;;24.00;20.50;;;;;;;3.88;100.00;100680.91;88955;280;25198;-80
2023/11/10 04:09:35;;;;;;;23.10;19.20;;;;;;;3.88;100.00;100677.30;89033;273;136905;-83
2023/11/10 04:11:40;;;;;;;21.50;19.00;;;;;;;3.86;100.00;100678.64;88773;277;22526;-84
2023/11/10 04:13:42;;;;;;;26.00;19.80;;;;;;;3.86;100.00;100677.59;88558;279;138208;-82
2023/11/10 04:15:44;;;;;;;24.00;19.40;;;;;;;3.86;100.00;100672.73;88966;276;22531;-84
2023/11/10 04:17:50;;;;;;;23.20;19.30;;;;;;;3.86;100.00;100676.95;88896;276;136830;-83
2023/11/10 04:19:52;;;;;;;22.40;20.00;;;;;;;3.85;100.00;100674.20;88606;277;22533;-81
2023/11/10 04:21:55;;;;;;;22.10;19.50;;;;;;;3.84;100.00;100673.42;89752;277;136420;-81
2023/11/10 04:23:59;;;;;;;20.10;17.20;;;;;;;3.83;100.00;100675.23;89551;280;22633;-80
2023/11/10 04:26:06;;;;;;;23.50;19.30;;;;;;;3.84;100.00;100677.63;88803;272;136394;-80
2023/11/10 04:28:11;;;;;;;22.20;18.80;;;;;;;3.83;100.00;100679.63;88468;280;138191;-81
2023/11/10 04:30:15;;;;;;;26.60;19.90;;;;;;;3.84;100.00;100680.60;89107;280;23573;-84
2023/11/10 04:32:18;;;;;;;22.20;18.30;;;;;;;3.84;100.00;100676.02;88812;280;138416;-72
2023/11/10 04:34:20;;;;;;;21.90;18.60;;;;;;;3.84;100.00;100679.71;90413;276;22530;-70
2023/11/10 04:36:22;;;;;;;22.50;18.40;;;;;;;3.86;100.00;100684.48;90513;280;136981;-77
2023/11/10 04:38:26;;;;;;;22.20;18.80;;;;;;;3.87;100.00;100684.70;89095;280;22527;-82
2023/11/10 04:40:27;;;;;;;20.40;17.60;;;;;;;3.88;100.00;100687.47;88841;273;160670;-78
2023/11/10 04:42:30;;;;;;;20.70;18.20;;;;;;;3.84;100.00;100687.81;88632;280;22541;-81
2023/11/10 04:44:32;;;;;;;21.00;18.20;;;;;;;3.80;100.00;100685.72;88516;277;137918;-82
2023/11/10 04:46:41;;;;;;;21.90;19.40;;;;;;;3.83;100.00;100691.95;88623;272;22569;-81
2023/11/10 04:48:44;;;;;;;25.90;18.40;;;;;;;3.84;100.00;100686.13;88493;280;137207;-76
2023/11/10 04:50:48;;;;;;;23.70;18.90;;;;;;;3.81;100.00;100687.78;88595;277;25119;-76
2023/11/10 04:52:51;;;;;;;20.70;17.30;;;;;;;3.81;100.00;100688.95;88534;273;138318;-78
2023/11/10 04:54:54;;;;;;;22.40;18.60;;;;;;;3.80;100.00;100689.02;88620;277;22536;-80
2023/11/10 04:56:56;;;;;;;21.60;17.50;;;;;;;3.81;100.00;100693.71;88534;273;138834;-84
2023/11/10 04:58:58;;;;;;;21.10;18.60;;;;;;;3.81;100.00;100685.12;88555;280;22534;-75
2023/11/10 05:01:00;;;;;;;22.40;17.50;;;;;;;3.79;100.00;100682.45;88361;273;136950;-75
2023/11/10 05:03:03;;;;;;;21.60;18.60;;;;;;;3.73;100.00;100676.69;88428;272;24129;-83
2023/11/10 05:05:06;;;;;;;19.30;17.10;;;;;;;3.81;100.00;100687.73;88693;273;136645;-76
2023/11/10 05:07:08;;;;;;;22.40;18.60;;;;;;;3.81;100.00;100689.86;90231;272;23974;-77
2023/11/10 05:09:10;;;;;;;21.30;17.50;;;;;;;3.83;100.00;100696.49;88497;273;136914;-78
2023/11/10 05:11:12;;;;;;;19.70;17.50;;;;;;;3.84;100.00;100698.01;88538;273;25201;-85
2023/11/10 05:13:16;;;;;;;21.30;17.00;;;;;;;3.86;100.00;100702.03;88366;273;137185;-82
2023/11/10 05:15:18;;;;;;;20.30;16.60;;;;;;;3.85;100.00;100704.55;89941;272;22513;-73
2023/11/10 05:17:21;;;;;;;21.30;17.40;;;;;;;3.86;100.00;100702.59;90503;280;136828;-72
2023/11/10 05:19:23;;;;;;;19.70;16.60;;;;;;;3.89;100.00;100701.95;89663;273;25229;-78
2023/11/10 05:21:26;;;;;;;23.60;18.60;;;;;;;3.92;100.00;100700.98;88366;274;136881;-77
2023/11/10 05:23:29;;;;;;;26.20;17.20;;;;;;;3.94;100.00;100696.92;88722;273;22532;-82
2023/11/10 05:25:31;;;;;;;19.50;16.10;;;;;;;3.96;100.00;100698.00;88460;273;137034;-77
2023/11/10 05:27:33;;;;;;;22.20;18.10;;;;;;;4.00;100.00;100695.54;88455;273;22599;-86
2023/11/10 05:29:35;;;;;;;28.40;19.00;;;;;;;4.11;100.00;100701.56;88408;273;137010;-78
2023/11/10 05:31:37;;;;;;;23.50;17.70;;;;;;;4.33;100.00;100695.97;88470;273;22548;-83
2023/11/10 05:33:39;;;;;;;24.30;18.40;;;;;;;4.59;100.00;100697.84;88475;272;137428;-79
2023/11/10 05:35:42;;;;;;;18.60;15.60;;;;;;;4.81;100.00;100701.23;89061;272;22538;-85
2023/11/10 05:37:44;;;;;;;19.20;16.40;;;;;;;4.89;100.00;100707.89;88973;277;137340;-85
2023/11/10 05:39:51;;;;;;;17.90;15.20;;;;;;;4.85;100.00;100712.46;89021;273;27259;-80
2023/11/10 05:41:53;;;;;;;19.50;16.00;;;;;;;4.79;100.00;100709.30;90115;277;136881;-83
2023/11/10 05:43:55;;;;;;;18.20;16.30;;;;;;;4.77;100.00;100714.84;89696;273;22565;-80
2023/11/10 05:45:57;;;;;;;17.20;14.20;;;;;;;4.74;100.00;100711.95;89202;273;137072;-72
2023/11/10 05:47:59;;;;;;;16.40;14.70;;;;;;;4.71;100.00;100711.02;88432;274;22622;-83
2023/11/10 05:50:04;;;;;;;19.70;14.80;;;;;;;4.68;100.00;100711.04;88682;281;24064;-83
2023/11/10 05:52:05;;;;;;;18.50;14.90;;;;;;;4.68;100.00;100716.32;88937;276;137732;-84
2023/11/10 05:54:07;;;;;;;19.50;14.50;;;;;;;4.69;100.00;100713.40;88568;277;23743;-80
2023/11/10 05:56:10;;;;;;;20.20;15.80;;;;;;;4.72;100.00;100717.90;89013;279;137164;-77
2023/11/10 05:58:11;;;;;;;17.90;15.70;;;;;;;4.77;100.00;100720.67;90020;273;22603;-78
2023/11/10 06:00:16;;;;;;;19.40;14.90;;;;;;;4.81;100.00;100721.48;90078;274;138782;-86
2023/11/10 06:02:18;;;;;;;17.20;14.60;;;;;;;4.85;100.00;100716.88;88844;274;22537;-84
2023/11/10 06:04:20;;;;;;;20.10;15.00;;;;;;;4.89;100.00;100709.98;88345;274;137335;-73
2023/11/10 06:06:36;;;;;;;18.30;14.10;;;;;;;4.94;100.00;100716.11;88625;273;22550;-79
2023/11/10 06:08:38;;;;;;;17.20;14.00;;;;;;;4.97;100.00;100717.36;88613;277;137000;-84
2023/11/10 06:10:42;;;;;;;15.10;13.40;;;;;;;5.02;100.00;100715.84;88747;273;22777;-87
2023/11/10 06:12:44;;;;;;;22.60;15.70;;;;;;;5.07;100.00;100711.72;88460;273;137338;-77
2023/11/10 06:14:46;;;;;;;19.50;15.50;;;;;;;5.12;100.00;100712.14;88472;275;22524;-84
2023/11/10 06:16:48;;;;;;;15.30;13.00;;;;;;;5.17;100.00;100713.27;88629;273;137321;-72
2023/11/10 06:18:50;;;;;;;16.90;13.70;;;;;;;5.21;100.00;100712.11;88393;274;22530;-83
2023/11/10 06:20:53;;;;;;;17.30;15.50;;;;;;;5.25;100.00;100712.45;88693;277;136882;-81
2023/11/10 06:22:55;;;;;;;15.80;14.10;;;;;;;5.31;100.00;100719.29;88509;273;23752;-78
2023/11/10 06:24:57;;;;;;;17.80;15.00;;;;;;;5.36;100.00;100719.05;88311;273;136900;-78
2023/11/10 06:26:58;;;;;;;16.80;14.10;;;;;;;5.41;100.00;100717.86;88541;273;22476;-76
2023/11/10 06:29:02;;;;;;;15.40;13.80;;;;;;;5.45;100.00;100714.64;88437;273;138008;-76
2023/11/10 06:31:04;;;;;;;16.10;13.50;;;;;;;5.48;100.00;100708.70;88723;281;25248;-74
2023/11/10 06:33:07;;;;;;;15.90;14.10;;;;;;;5.55;100.00;100719.66;88391;273;138476;-77
2023/11/10 06:35:09;;;;;;;19.50;13.80;;;;;;;5.60;100.00;100723.46;88684;273;22523;-83
2023/11/10 06:37:12;;;;;;;19.20;13.60;;;;;;;5.65;100.00;100723.69;88667;273;137565;-75
2023/11/10 06:39:17;;;;;;;17.90;13.40;;;;;;;5.69;100.00;100720.48;90011;280;22861;-79
2023/11/10 06:41:20;;;;;;;15.70;13.30;;;;;;;5.66;100.00;100701.70;89037;280;137089;-73
2023/11/10 06:43:23;;;;;;;15.00;12.60;;;;;;;5.80;100.00;100712.56;88655;277;25156;-74
2023/11/10 06:45:26;;;;;;;16.30;13.50;;;;;;;5.89;100.00;100709.77;88193;274;136872;-81
2023/11/10 06:47:29;;;;;;;16.10;12.90;;;;;;;5.97;100.00;100706.11;88477;272;22544;-76
2023/11/10 06:49:32;;;;;;;12.00;10.20;;;;;;;6.08;100.00;100702.52;88479;273;138927;-71
2023/11/10 06:51:34;;;;;;;14.30;12.30;;;;;;;6.11;100.00;100701.16;88431;273;22600;-77
2023/11/10 06:53:36;;;;;;;18.40;12.20;;;;;;;6.13;100.00;100706.60;88270;272;137394;-81
2023/11/10 06:55:39;;;;;;;13.10;11.50;;;;;;;6.16;100.00;100701.15;88541;277;26019;-74
2023/11/10 06:57:42;;;;;;;14.10;11.90;;;;;;;6.22;100.00;100695.06;88581;281;138314;-80
2023/11/10 06:59:44;;;;;;;13.00;11.70;;;;;;;6.30;100.00;100696.05;88585;273;22528;-79
2023/11/10 07:01:47;;;;;;;16.40;13.40;;;;;;;6.37;100.00;100700.63;90724;273;136928;-71
2023/11/10 07:03:49;;;;;;;12.80;10.70;;;;;;;6.42;100.00;100700.90;90561;273;22542;-73
2023/11/10 07:05:51;;;;;;;12.10;10.80;;;;;;;6.47;100.00;100701.47;90954;280;136986;-75
2023/11/10 07:07:54;;;;;;;14.20;10.90;;;;;;;6.53;100.00;100705.44;89394;273;25294;-75
2023/11/10 07:09:59;;;;;;;10.90;9.80;;;;;;;6.58;100.00;100706.23;88562;273;137253;-80
2023/11/10 07:12:02;;;;;;;13.10;11.70;;;;;;;6.61;100.00;100708.87;88641;273;24014;-82
2023/11/10 07:14:05;;;;;;;13.70;11.40;;;;;;;6.63;100.00;100705.55;88516;273;25230;-81
2023/11/10 07:16:07;;;;;;;12.50;11.20;;;;;;;6.66;100.00;100705.27;88467;273;137600;-83
2023/11/10 07:18:10;;;;;;;14.10;10.20;;;;;;;6.69;100.00;100700.69;88535;273;22475;-81
2023/11/10 07:20:12;;;;;;;14.80;11.10;;;;;;;6.73;100.00;100702.40;88810;280;138701;-79
2023/11/10 07:22:14;;;;;;;12.40;11.00;;;;;;;6.76;100.00;100699.28;90104;273;22531;-82
2023/11/10 07:24:16;;;;;;;13.40;10.80;;;;;;;6.82;100.00;100698.47;88613;273;137631;-84
2023/11/10 07:26:19;;;;;;;15.90;11.20;;;;;;;6.86;100.00;100702.05;88883;274;22537;-82
2023/11/10 07:28:21;;;;;;;12.80;11.50;;;;;;;6.86;100.00;100703.08;88299;273;137218;-76
2023/11/10 07:30:23;;;;;;;13.10;11.70;;;;;;;6.82;100.00;100700.05;88457;279;22527;-79
2023/11/10 07:32:25;;;;;;;13.30;11.80;;;;;;;6.83;100.00;100698.20;88520;272;138529;-81
2023/11/10 07:34:27;;;;;;;11.70;10.50;;;;;;;6.86;100.00;100698.48;88466;272;22544;-74
2023/11/10 07:36:29;;;;;;;13.40;12.00;;;;;;;6.88;100.00;100691.17;88359;272;137444;-74
2023/11/10 07:38:31;;;;;;;14.40;12.00;;;;;;;6.93;100.00;100691.75;88440;276;22542;-72
2023/11/10 07:40:34;;;;;;;14.20;10.70;;;;;;;6.91;100.00;100679.18;88367;272;137314;-80
2023/11/10 07:42:38;;;;;;;12.40;10.60;;;;;;;7.04;100.00;100687.94;88388;276;22618;-79
2023/11/10 07:44:40;;;;;;;14.60;11.50;;;;;;;7.11;100.00;100684.30;88312;276;138405;-80
2023/11/10 07:46:42;;;;;;;13.40;10.40;;;;;;;7.16;100.00;100684.89;88473;276;25080;-75
2023/11/10 07:48:44;;;;;;;12.70;9.80;;;;;;;7.22;100.00;100682.97;88302;272;136961;-79
2023/11/10 07:50:46;;;;;;;13.00;11.10;;;;;;;7.28;100.00;100687.16;88507;276;22559;-81
2023/11/10 07:52:48;;;;;;;11.90;10.10;;;;;;;7.31;100.00;100687.71;88308;273;137243;-84
2023/11/10 07:54:50;;;;;;;14.50;10.60;;;;;;;7.31;100.00;100684.46;88871;273;22527;-78
2023/11/10 07:57:00;;;;;;;12.70;11.10;;;;;;;7.36;100.00;100684.69;88606;276;136851;-83
2023/11/10 07:59:03;;;;;;;12.90;11.20;;;;;;;7.41;100.00;100685.08;88595;272;23716;-80
2023/11/10 08:01:06;;;;;;;12.70;9.70;;;;;;;7.47;100.00;100684.37;89321;277;136825;-75
2023/11/10 08:03:10;;;;;;;;;;;;;;;7.54;100.00;100683.14;89346;280;22531;-79
2023/11/10 08:05:13;;;;;;;11.40;9.60;;;;;;;7.60;100.00;100679.65;88556;276;123335;-81
2023/11/10 08:07:15;;;;;;;11.10;8.80;;;;;;;7.68;100.00;100678.33;88746;276;25416;-83
2023/11/10 08:09:18;;;;;;;10.30;9.00;;;;;;;7.76;100.00;100679.66;88382;272;137025;-79
2023/11/10 08:11:20;;;;;;;11.70;8.80;;;;;;;7.82;100.00;100674.02;88525;272;22682;-77
2023/11/10 08:13:22;;;;;;;11.70;9.20;;;;;;;7.89;100.00;100675.82;88297;276;137134;-83
2023/11/10 08:15:24;;;;;;;9.50;8.50;;;;;;;7.96;100.00;100677.12;88454;272;22529;-83
2023/11/10 08:17:27;;;;;;;10.30;9.30;;;;;;;8.05;100.00;100673.60;88569;272;136755;-79
2023/11/10 08:19:29;;;;;;;11.20;9.20;;;;;;;8.16;100.00;100669.89;88892;272;22531;-80
2023/11/10 08:21:31;;;;;;;9.40;8.00;;;;;;;8.28;100.00;100670.73;88154;277;137205;-79
2023/11/10 08:23:42;;;;;;;10.80;7.80;;;;;;;8.42;100.00;100668.27;89037;273;22548;-76
2023/11/10 08:25:45;;;;;;;10.10;9.00;;;;;;;8.53;100.00;100665.85;88319;280;137217;-81
2023/11/10 08:27:47;;;;;;;10.60;8.30;;;;;;;8.62;100.00;100661.63;88432;276;22524;-77
2023/11/10 08:29:49;;;;;;;10.00;7.20;;;;;;;8.70;100.00;100660.95;88278;276;137012;-81
2023/11/10 08:31:52;;;;;;;7.70;7.00;;;;;;;8.79;100.00;100661.20;89441;273;22597;-82
2023/11/10 08:33:54;;;;;;;9.10;7.80;;;;;;;8.87;100.00;100661.74;88343;276;136976;-79
2023/11/10 08:35:57;;;;;;;7.20;6.30;;;;;;;8.95;100.00;100658.41;88828;280;22530;-77
2023/11/10 08:37:59;;;;;;;6.60;6.00;;;;;;;9.03;100.00;100662.48;88410;272;138244;-80
2023/11/10 08:40:00;;;;;;;6.60;5.20;;;;;;;9.08;100.00;100656.02;88642;280;22530;-81
2023/11/10 08:42:05;;;;;;;5.30;4.80;;;;;;;9.17;100.00;100657.33;89140;274;23882;-80
2023/11/10 08:44:08;;;;;;;5.80;5.30;;;;;;;9.27;100.00;100658.62;89760;274;136654;-77
2023/11/10 08:46:10;;;;;;;6.30;5.70;;;;;;;9.35;100.00;100651.77;89454;276;22729;-79
2023/11/10 08:48:14;;;;;;;5.10;4.50;;;;;;;9.44;100.00;100649.45;88472;273;137661;-80
2023/11/10 08:50:16;;;;;;;6.40;5.30;;;;;;;9.48;100.00;100641.45;88467;275;24070;-76
2023/11/10 08:52:19;;;;;;;5.70;4.90;;;;;;;9.53;100.00;100643.74;88718;272;136880;-79
2023/11/10 08:54:21;;;;;;;4.70;4.30;;;;;;;9.61;100.00;100647.55;89366;274;22604;-81
2023/11/10 08:56:23;;;;;;;4.90;4.50;;;;;;;9.58;100.00;100630.17;89304;272;137478;-80
2023/11/10 08:58:24;;;;;;;4.30;3.90;;;;;;;9.73;100.00;100640.91;89695;272;22473;-81
2023/11/10 09:00:26;;;;;;;4.10;3.70;;;;;;;9.78;100.00;100634.48;89287;273;137658;-82
2023/11/10 09:02:28;;;;;;;3.60;3.20;;;;;;;9.82;100.00;100633.30;89072;271;24056;-80
2023/11/10 09:04:30;;;;;;;4.40;4.00;;;;;;;9.87;100.00;100628.18;88812;276;136690;-74
2023/11/10 09:06:32;;;;;;;4.60;4.20;;;;;;;9.92;100.00;100627.08;88462;278;22642;-79
2023/11/10 09:08:34;;;;;;;3.70;3.40;;;;;;;9.96;100.00;100614.41;88508;271;137100;-80
2023/11/10 09:10:36;;;;;;;4.40;4.00;;;;;;;10.04;100.00;100615.58;88937;272;24027;-83
2023/11/10 09:12:42;;;;;;;4.40;3.60;;;;;;;10.11;100.00;100619.52;88726;273;136609;-78
2023/11/10 09:14:44;;;;;;;4.00;3.60;;;;;;;10.18;100.00;100616.61;88972;272;24018;-75
2023/11/10 09:16:46;;;;;;;3.50;3.20;;;;;;;10.23;100.00;100611.70;88782;272;137533;-78
2023/11/10 09:18:48;;;;;;;4.20;3.30;;;;;;;10.24;100.00;100598.14;89032;276;24014;-77
2023/11/10 09:20:50;;;;;;;4.40;3.10;;;;;;;10.27;100.00;100598.98;88291;272;138826;-81
2023/11/10 09:22:52;;;;;;;3.10;2.80;;;;;;;10.22;100.00;100603.69;89031;272;22557;-75
2023/11/10 09:24:54;;;;;;;4.90;4.40;;;;;;;10.22;100.00;100592.13;88517;272;137474;-79
2023/11/10 09:27:00;;;;;;;8.90;3.70;;;;;;;10.22;100.00;100597.82;89613;272;22531;-81